Time;durP1;ratioP1;P1;durP2;ratioP2;P2;SDS_P1;SDS_P2;PMS_P1;PMS_P2;Temp;Humidity;BMP_temperature;BMP_pressure;BME280_temperature;BME280_humidity;BME280_pressure;Samples;Min_cycle;Max_cycle;Signal;HPM_P1;HPM_P2
2023/07/30 00:01:38;;;;;;;4.45;2.08;;;;;;;;;;5012922;28;20483;-88
2023/07/30 00:04:04;;;;;;;5.68;2.60;;;;;;;;;;4997287;28;20046;-88
2023/07/30 00:06:30;;;;;;;5.07;2.45;;;;;;;;;;5013461;28;20125;-88
2023/07/30 00:08:56;;;;;;;4.00;2.05;;;;;;;;;;5014275;28;20109;-88
2023/07/30 00:11:22;;;;;;;5.80;3.40;;;;;;;;;;4978590;28;20038;-88
2023/07/30 00:13:48;;;;;;;3.25;1.98;;;;;;;;;;4996558;28;20490;-87
2023/07/30 00:16:14;;;;;;;2.83;1.65;;;;;;;;;;5012247;28;20045;-88
2023/07/30 00:18:40;;;;;;;3.65;2.15;;;;;;;;;;5014370;28;20044;-89
2023/07/30 00:21:06;;;;;;;5.55;2.33;;;;;;;;;;5014946;28;20133;-89
2023/07/30 00:23:32;;;;;;;2.85;1.88;;;;;;;;;;5014500;28;20048;-89
2023/07/30 00:25:58;;;;;;;5.78;2.20;;;;;;;;;;5012637;28;20390;-88
2023/07/30 00:28:24;;;;;;;7.53;2.72;;;;;;;;;;4995114;28;20053;-88
2023/07/30 00:30:50;;;;;;;4.22;2.20;;;;;;;;;;5014292;28;20046;-88
2023/07/30 00:33:16;;;;;;;5.72;2.38;;;;;;;;;;5013985;28;20034;-89
2023/07/30 00:35:42;;;;;;;4.55;2.15;;;;;;;;;;5014980;28;20180;-88
2023/07/30 00:38:08;;;;;;;4.15;2.00;;;;;;;;;;5000405;28;20065;-88
2023/07/30 00:40:39;;;;;;;3.75;2.22;;;;;;;;;;4999950;28;20062;-88
2023/07/30 00:43:05;;;;;;;3.88;2.22;;;;;;;;;;5001701;28;20042;-88
2023/07/30 00:45:32;;;;;;;4.68;2.10;;;;;;;;;;5023192;28;20109;-88
2023/07/30 00:47:58;;;;;;;6.32;2.65;;;;;;;;;;5035755;28;20042;-88
2023/07/30 00:50:24;;;;;;;5.15;2.15;;;;;;;;;;5034732;28;20050;-89
2023/07/30 00:52:50;;;;;;;3.90;2.47;;;;;;;;;;5032376;28;20038;-88
2023/07/30 00:55:16;;;;;;;3.08;1.77;;;;;;;;;;5017463;28;20406;-88
2023/07/30 00:57:43;;;;;;;4.82;2.17;;;;;;;;;;5013040;28;20077;-89
2023/07/30 01:00:09;;;;;;;7.53;2.88;;;;;;;;;;4978603;28;20050;-88
2023/07/30 01:02:38;;;;;;;5.03;2.03;;;;;;;;;;4992935;28;20080;-88
2023/07/30 01:05:04;;;;;;;6.60;3.75;;;;;;;;;;5012540;28;20046;-89
2023/07/30 01:07:31;;;;;;;5.07;2.65;;;;;;;;;;4994788;28;20038;-88
2023/07/30 01:09:57;;;;;;;5.50;2.30;;;;;;;;;;4994692;28;20123;-89
2023/07/30 01:12:23;;;;;;;6.55;2.15;;;;;;;;;;4978382;28;20077;-89
2023/07/30 01:14:50;;;;;;;5.55;2.22;;;;;;;;;;4995231;28;20038;-88
2023/07/30 01:17:16;;;;;;;3.58;2.70;;;;;;;;;;5012511;28;20038;-89
2023/07/30 01:19:42;;;;;;;4.57;2.05;;;;;;;;;;5011738;28;20034;-88
2023/07/30 01:22:08;;;;;;;6.82;2.38;;;;;;;;;;5012721;28;20116;-88
2023/07/30 01:24:34;;;;;;;3.08;2.00;;;;;;;;;;5011715;28;20088;-88
2023/07/30 01:27:03;;;;;;;3.42;2.40;;;;;;;;;;5012172;28;20041;-88
2023/07/30 01:29:33;;;;;;;8.20;2.30;;;;;;;;;;5012468;28;20042;-88
2023/07/30 01:32:02;;;;;;;5.07;2.33;;;;;;;;;;5012217;28;20049;-89
2023/07/30 01:34:28;;;;;;;4.53;1.88;;;;;;;;;;4994041;28;20100;-88
2023/07/30 01:36:55;;;;;;;5.95;2.10;;;;;;;;;;5012883;28;20431;-88
2023/07/30 01:39:21;;;;;;;5.13;2.47;;;;;;;;;;5011275;28;20062;-88
2023/07/30 01:41:47;;;;;;;3.55;1.75;;;;;;;;;;5011988;28;20487;-88
2023/07/30 01:44:13;;;;;;;4.60;2.38;;;;;;;;;;5005593;28;20038;-88
2023/07/30 01:46:39;;;;;;;4.40;2.10;;;;;;;;;;4991596;28;20042;-88
2023/07/30 01:49:05;;;;;;;7.22;2.78;;;;;;;;;;4990795;28;20869;-88
2023/07/30 01:51:31;;;;;;;5.10;1.83;;;;;;;;;;4974928;28;20479;-88
2023/07/30 01:53:57;;;;;;;5.07;1.85;;;;;;;;;;4991893;28;20048;-88
2023/07/30 01:56:23;;;;;;;4.88;1.80;;;;;;;;;;4990805;28;20049;-88
2023/07/30 01:58:49;;;;;;;3.80;1.58;;;;;;;;;;4992417;28;20038;-88
2023/07/30 02:01:15;;;;;;;3.85;1.52;;;;;;;;;;4974621;28;20077;-88
2023/07/30 02:03:41;;;;;;;4.75;1.92;;;;;;;;;;4990595;28;20046;-88
2023/07/30 02:06:07;;;;;;;4.55;1.60;;;;;;;;;;4992848;28;20125;-88
2023/07/30 02:08:33;;;;;;;5.32;2.30;;;;;;;;;;4990961;28;20054;-88
2023/07/30 02:10:59;;;;;;;5.22;2.28;;;;;;;;;;5002537;28;20049;-88
2023/07/30 02:13:26;;;;;;;4.97;1.92;;;;;;;;;;5011463;28;20407;-88
2023/07/30 02:15:52;;;;;;;3.90;1.92;;;;;;;;;;5005179;28;20061;-89
2023/07/30 02:18:18;;;;;;;7.25;2.80;;;;;;;;;;4990406;28;20040;-88
2023/07/30 02:20:44;;;;;;;3.55;1.55;;;;;;;;;;4991936;28;20050;-88
2023/07/30 02:23:10;;;;;;;3.97;1.30;;;;;;;;;;4990309;28;20438;-88
2023/07/30 02:25:36;;;;;;;7.05;1.77;;;;;;;;;;4989066;28;20109;-88
2023/07/30 02:28:02;;;;;;;3.97;1.95;;;;;;;;;;4990645;28;20046;-88
2023/07/30 02:30:29;;;;;;;4.45;1.95;;;;;;;;;;4989869;28;20046;-88
2023/07/30 02:32:55;;;;;;;4.30;2.33;;;;;;;;;;4991795;28;20112;-89
2023/07/30 02:35:21;;;;;;;5.38;1.90;;;;;;;;;;4990565;28;20125;-89
2023/07/30 02:37:46;;;;;;;6.78;2.08;;;;;;;;;;4991758;28;20125;-88
2023/07/30 02:40:12;;;;;;;2.55;1.50;;;;;;;;;;5001548;28;20176;-88
2023/07/30 02:42:38;;;;;;;4.65;1.83;;;;;;;;;;4986328;28;20725;-88
2023/07/30 02:45:05;;;;;;;4.38;2.00;;;;;;;;;;5008647;28;20042;-88
2023/07/30 02:47:31;;;;;;;8.07;1.60;;;;;;;;;;5010686;28;20505;-88
2023/07/30 02:49:57;;;;;;;5.18;1.75;;;;;;;;;;4993352;28;20037;-88
2023/07/30 02:52:23;;;;;;;5.50;1.85;;;;;;;;;;5010683;28;20084;-88
2023/07/30 02:54:49;;;;;;;3.75;1.80;;;;;;;;;;4992283;28;20406;-88
2023/07/30 02:57:15;;;;;;;4.65;2.10;;;;;;;;;;4991217;28;20092;-88
2023/07/30 02:59:41;;;;;;;3.15;1.75;;;;;;;;;;4990640;28;20046;-88
2023/07/30 03:02:07;;;;;;;4.95;2.13;;;;;;;;;;4974307;28;20389;-88
2023/07/30 03:04:33;;;;;;;6.22;1.83;;;;;;;;;;5009623;28;20492;-88
2023/07/30 03:07:00;;;;;;;3.72;1.50;;;;;;;;;;5011091;28;20117;-87
2023/07/30 03:09:26;;;;;;;4.32;1.80;;;;;;;;;;5008461;28;20730;-87
2023/07/30 03:11:52;;;;;;;3.80;1.88;;;;;;;;;;5009026;28;20456;-87
2023/07/30 03:14:20;;;;;;;4.93;1.60;;;;;;;;;;5009886;28;20125;-88
2023/07/30 03:16:46;;;;;;;2.55;1.23;;;;;;;;;;4993047;28;20084;-88
2023/07/30 03:19:13;;;;;;;2.75;1.75;;;;;;;;;;5010704;28;20034;-88
2023/07/30 03:21:39;;;;;;;3.92;1.60;;;;;;;;;;4993054;28;20467;-87
2023/07/30 03:24:05;;;;;;;4.80;1.80;;;;;;;;;;5011071;28;20042;-88
2023/07/30 03:26:31;;;;;;;4.00;1.17;;;;;;;;;;4983432;28;20042;-88
2023/07/30 03:28:57;;;;;;;3.72;1.67;;;;;;;;;;4992892;28;20038;-88
2023/07/30 03:31:23;;;;;;;8.95;1.80;;;;;;;;;;4992675;28;20061;-88
2023/07/30 03:33:49;;;;;;;4.93;1.65;;;;;;;;;;4977172;28;20041;-88
2023/07/30 03:36:15;;;;;;;5.53;1.52;;;;;;;;;;4992701;28;20042;-87
2023/07/30 03:38:41;;;;;;;4.43;1.75;;;;;;;;;;5009710;28;20053;-88
2023/07/30 03:41:07;;;;;;;5.13;1.70;;;;;;;;;;5008956;28;20079;-88
2023/07/30 03:43:36;;;;;;;3.55;1.83;;;;;;;;;;5009877;28;20054;-88
2023/07/30 03:46:02;;;;;;;9.60;2.00;;;;;;;;;;5010907;28;20391;-89
2023/07/30 03:48:28;;;;;;;3.67;1.48;;;;;;;;;;5010195;28;20046;-88
2023/07/30 03:50:54;;;;;;;5.97;1.52;;;;;;;;;;5010455;28;20541;-88
2023/07/30 03:53:20;;;;;;;5.00;1.40;;;;;;;;;;5001206;28;20126;-88
2023/07/30 03:55:47;;;;;;;5.32;1.80;;;;;;;;;;5001237;28;20049;-87
2023/07/30 03:58:13;;;;;;;5.50;1.55;;;;;;;;;;5010194;28;20442;-88
2023/07/30 04:00:39;;;;;;;2.85;1.13;;;;;;;;;;5010136;28;20060;-89
2023/07/30 04:03:05;;;;;;;2.78;1.45;;;;;;;;;;5010567;28;20149;-89
2023/07/30 04:05:31;;;;;;;4.78;2.03;;;;;;;;;;4993055;28;20050;-88
2023/07/30 04:07:57;;;;;;;4.53;1.42;;;;;;;;;;4993124;28;20069;-87
2023/07/30 04:10:23;;;;;;;3.30;1.30;;;;;;;;;;5003348;28;20044;-88
2023/07/30 04:12:51;;;;;;;4.22;2.03;;;;;;;;;;4996817;28;20053;-88
2023/07/30 04:15:17;;;;;;;3.72;1.70;;;;;;;;;;5013880;28;20545;-88
2023/07/30 04:17:43;;;;;;;5.32;1.95;;;;;;;;;;5012563;28;20042;-88
2023/07/30 04:20:09;;;;;;;4.10;1.50;;;;;;;;;;5013934;28;20042;-88
2023/07/30 04:22:36;;;;;;;4.95;1.95;;;;;;;;;;4994491;28;20045;-88
2023/07/30 04:25:03;;;;;;;5.95;1.65;;;;;;;;;;4997836;28;20140;-87
2023/07/30 04:27:29;;;;;;;3.85;1.35;;;;;;;;;;5012760;28;20042;-88
2023/07/30 04:29:55;;;;;;;5.63;1.88;;;;;;;;;;5013091;28;20042;-88
2023/07/30 04:32:21;;;;;;;4.13;1.95;;;;;;;;;;4995611;28;20037;-88
2023/07/30 04:34:47;;;;;;;7.78;2.40;;;;;;;;;;4996054;28;20076;-89
2023/07/30 04:37:13;;;;;;;3.28;1.90;;;;;;;;;;5013443;28;20048;-88
2023/07/30 04:39:39;;;;;;;5.85;1.63;;;;;;;;;;4994598;28;20419;-89
2023/07/30 04:42:05;;;;;;;5.93;1.63;;;;;;;;;;5013346;28;20050;-88
2023/07/30 04:44:31;;;;;;;6.50;1.70;;;;;;;;;;5012563;28;20042;-88
2023/07/30 04:46:57;;;;;;;4.25;1.65;;;;;;;;;;4996274;28;20069;-88
2023/07/30 04:49:23;;;;;;;3.17;1.48;;;;;;;;;;5008524;28;20384;-87
2023/07/30 04:51:49;;;;;;;4.35;1.77;;;;;;;;;;5006201;28;20281;-88
2023/07/30 04:54:15;;;;;;;3.78;1.30;;;;;;;;;;5013048;28;20046;-88
2023/07/30 04:56:42;;;;;;;7.50;1.95;;;;;;;;;;4992913;28;20404;-88
2023/07/30 04:59:08;;;;;;;4.28;1.77;;;;;;;;;;5013383;28;20041;-88
2023/07/30 05:01:34;;;;;;;5.43;1.50;;;;;;;;;;5012816;28;20061;-88
2023/07/30 05:04:00;;;;;;;5.60;1.98;;;;;;;;;;4995138;28;20399;-89
2023/07/30 05:06:26;;;;;;;5.57;1.83;;;;;;;;;;4995275;28;20044;-88
2023/07/30 05:08:52;;;;;;;3.47;2.20;;;;;;;;;;5012968;28;20048;-88
2023/07/30 05:11:18;;;;;;;6.38;1.98;;;;;;;;;;4997081;28;20034;-88
2023/07/30 05:13:44;;;;;;;5.35;1.95;;;;;;;;;;4995383;28;20050;-88
2023/07/30 05:16:10;;;;;;;8.63;2.03;;;;;;;;;;5012961;28;20042;-87
2023/07/30 05:18:36;;;;;;;7.15;2.00;;;;;;;;;;4994338;28;20406;-88
2023/07/30 05:21:02;;;;;;;6.65;1.95;;;;;;;;;;5012047;28;20190;-88
2023/07/30 05:23:28;;;;;;;3.95;1.77;;;;;;;;;;4987520;28;20484;-89
2023/07/30 05:25:54;;;;;;;6.28;2.05;;;;;;;;;;4990642;28;20042;-94
2023/07/30 05:28:20;;;;;;;6.35;1.98;;;;;;;;;;5001703;28;20049;-89
2023/07/30 05:30:46;;;;;;;6.43;1.75;;;;;;;;;;5013839;28;20124;-95
2023/07/30 05:33:12;;;;;;;7.47;2.03;;;;;;;;;;5018305;28;20050;-91
2023/07/30 05:35:38;;;;;;;7.28;3.22;;;;;;;;;;5011668;28;20038;-90
2023/07/30 05:38:04;;;;;;;10.93;2.15;;;;;;;;;;4993879;28;20080;-91
2023/07/30 05:40:30;;;;;;;5.72;2.33;;;;;;;;;;4988899;28;20057;-91
2023/07/30 05:42:56;;;;;;;10.02;2.78;;;;;;;;;;5011441;28;20426;-92
2023/07/30 05:45:22;;;;;;;7.85;2.72;;;;;;;;;;4980175;28;20042;-91
2023/07/30 05:47:48;;;;;;;5.65;2.13;;;;;;;;;;4992919;28;20110;-85
2023/07/30 05:50:14;;;;;;;7.63;2.50;;;;;;;;;;4976265;28;20460;-88
2023/07/30 05:52:40;;;;;;;7.88;2.40;;;;;;;;;;5005047;28;20046;-91
2023/07/30 05:55:06;;;;;;;7.10;2.00;;;;;;;;;;4991848;28;20048;-90
2023/07/30 05:57:32;;;;;;;5.55;3.00;;;;;;;;;;4982423;28;20506;-91
2023/07/30 05:59:58;;;;;;;7.40;2.05;;;;;;;;;;4990651;28;20046;-90
2023/07/30 06:02:24;;;;;;;8.65;2.45;;;;;;;;;;4979938;28;20042;-91
2023/07/30 06:04:50;;;;;;;6.57;2.38;;;;;;;;;;4991769;28;20045;-89
2023/07/30 06:07:16;;;;;;;7.00;2.22;;;;;;;;;;5016831;28;20037;-90
2023/07/30 06:09:42;;;;;;;7.70;2.63;;;;;;;;;;5003914;28;20053;-91
2023/07/30 06:12:08;;;;;;;5.90;2.05;;;;;;;;;;5014702;28;20169;-90
2023/07/30 06:14:34;;;;;;;8.68;2.47;;;;;;;;;;5017428;28;20041;-93
2023/07/30 06:17:00;;;;;;;8.70;3.35;;;;;;;;;;5017917;28;20034;-92
2023/07/30 06:19:26;;;;;;;10.40;2.60;;;;;;;;;;5012652;28;20046;-89
2023/07/30 06:21:52;;;;;;;4.78;2.47;;;;;;;;;;4985288;28;20050;-82
2023/07/30 06:24:18;;;;;;;8.70;3.05;;;;;;;;;;5001777;28;20034;-82
2023/07/30 06:26:44;;;;;;;8.52;2.90;;;;;;;;;;4993401;28;20034;-81
2023/07/30 06:29:10;;;;;;;6.63;2.47;;;;;;;;;;5010388;28;20064;-81
2023/07/30 06:31:36;;;;;;;7.53;2.50;;;;;;;;;;5006185;28;20038;-81
2023/07/30 06:34:02;;;;;;;7.07;2.28;;;;;;;;;;5008598;28;20514;-82
2023/07/30 06:36:28;;;;;;;9.95;2.85;;;;;;;;;;5003872;28;20046;-81
2023/07/30 06:38:54;;;;;;;7.50;2.33;;;;;;;;;;5005701;28;20064;-81
2023/07/30 06:41:21;;;;;;;8.13;2.45;;;;;;;;;;4991910;28;20049;-81
2023/07/30 06:43:47;;;;;;;11.10;2.85;;;;;;;;;;4988732;28;20038;-82
2023/07/30 06:46:13;;;;;;;7.45;2.58;;;;;;;;;;4993569;28;20074;-81
2023/07/30 06:48:39;;;;;;;13.70;3.22;;;;;;;;;;4990986;28;20038;-81
2023/07/30 06:51:10;;;;;;;6.53;2.58;;;;;;;;;;4984111;28;20042;-82
2023/07/30 06:53:36;;;;;;;7.82;2.63;;;;;;;;;;5003815;28;20405;-82
2023/07/30 06:56:03;;;;;;;9.10;2.30;;;;;;;;;;4991160;28;20395;-81
2023/07/30 06:58:29;;;;;;;8.10;2.50;;;;;;;;;;4991798;28;20042;-82
2023/07/30 07:00:55;;;;;;;6.88;2.28;;;;;;;;;;5000002;28;20115;-81
2023/07/30 07:03:21;;;;;;;6.78;2.42;;;;;;;;;;4990910;28;20041;-81
2023/07/30 07:05:53;;;;;;;6.45;2.13;;;;;;;;;;4989478;28;20042;-82
2023/07/30 07:08:19;;;;;;;7.95;2.75;;;;;;;;;;4982091;28;20042;-82
2023/07/30 07:10:45;;;;;;;7.72;2.45;;;;;;;;;;5007800;28;20073;-81
2023/07/30 07:13:14;;;;;;;10.90;2.50;;;;;;;;;;5003230;28;20100;-85
2023/07/30 07:15:41;;;;;;;9.48;2.20;;;;;;;;;;4995149;28;20046;-84
2023/07/30 07:18:07;;;;;;;9.60;2.58;;;;;;;;;;5000652;28;20037;-85
2023/07/30 07:20:33;;;;;;;7.40;2.00;;;;;;;;;;5000087;28;20080;-86
2023/07/30 07:22:59;;;;;;;7.53;2.30;;;;;;;;;;4987205;28;20077;-82
2023/07/30 07:25:25;;;;;;;3.25;1.95;;;;;;;;;;4982239;28;20073;-82
2023/07/30 07:27:51;;;;;;;6.57;2.30;;;;;;;;;;4986043;28;20482;-83
2023/07/30 07:30:17;;;;;;;4.78;2.28;;;;;;;;;;4984173;28;20045;-82
2023/07/30 07:32:43;;;;;;;5.10;1.63;;;;;;;;;;4987158;28;20060;-85
2023/07/30 07:35:09;;;;;;;5.97;1.92;;;;;;;;;;5000977;28;20434;-84
2023/07/30 07:37:35;;;;;;;8.40;2.58;;;;;;;;;;5001423;28;20427;-82
2023/07/30 07:40:03;;;;;;;6.38;1.92;;;;;;;;;;4988207;28;20062;-84
2023/07/30 07:42:29;;;;;;;7.10;1.88;;;;;;;;;;5007016;28;20104;-84
2023/07/30 07:44:55;;;;;;;11.55;2.50;;;;;;;;;;4987656;28;20038;-81
2023/07/30 07:47:21;;;;;;;4.22;1.67;;;;;;;;;;4991262;28;20054;-79
2023/07/30 07:49:48;;;;;;;8.68;1.98;;;;;;;;;;5008268;28;20041;-79
2023/07/30 07:52:15;;;;;;;5.93;1.88;;;;;;;;;;5012259;28;20045;-78
2023/07/30 07:54:41;;;;;;;8.43;2.58;;;;;;;;;;5012399;28;20042;-82
2023/07/30 07:57:08;;;;;;;8.00;1.75;;;;;;;;;;4991558;28;20521;-82
2023/07/30 07:59:34;;;;;;;9.13;1.88;;;;;;;;;;5014231;28;20045;-83
2023/07/30 08:02:00;;;;;;;7.45;1.65;;;;;;;;;;5002508;28;20081;-83
2023/07/30 08:04:26;;;;;;;7.60;1.90;;;;;;;;;;5017374;28;20037;-82
2023/07/30 08:06:52;;;;;;;8.55;1.55;;;;;;;;;;5032313;28;20038;-82
2023/07/30 08:09:18;;;;;;;6.15;1.73;;;;;;;;;;4988745;28;20486;-81
2023/07/30 08:11:44;;;;;;;2.92;1.60;;;;;;;;;;5008228;28;20042;-82
2023/07/30 08:14:10;;;;;;;6.88;1.85;;;;;;;;;;4993834;28;20052;-82
2023/07/30 08:16:36;;;;;;;5.22;1.77;;;;;;;;;;4979670;28;20038;-81
2023/07/30 08:19:02;;;;;;;6.28;1.85;;;;;;;;;;4993814;28;20037;-81
2023/07/30 08:21:28;;;;;;;4.38;1.73;;;;;;;;;;5006901;28;20060;-82
2023/07/30 08:23:54;;;;;;;4.00;1.65;;;;;;;;;;5006688;28;20407;-83
2023/07/30 08:26:20;;;;;;;7.75;1.80;;;;;;;;;;5006906;28;20363;-82
2023/07/30 08:28:46;;;;;;;4.13;1.98;;;;;;;;;;5009878;28;20395;-82
2023/07/30 08:31:12;;;;;;;10.38;2.17;;;;;;;;;;4990331;28;20134;-82
2023/07/30 08:33:38;;;;;;;5.78;1.70;;;;;;;;;;4963104;28;20466;-82
2023/07/30 08:36:04;;;;;;;5.57;2.05;;;;;;;;;;5010407;28;20041;-82
2023/07/30 08:38:30;;;;;;;7.25;1.92;;;;;;;;;;5009970;28;20049;-82
2023/07/30 08:40:57;;;;;;;4.55;1.55;;;;;;;;;;5010696;28;20107;-81
2023/07/30 08:43:23;;;;;;;4.50;2.03;;;;;;;;;;5009876;28;20073;-82
2023/07/30 08:45:49;;;;;;;7.88;2.47;;;;;;;;;;5026614;28;20049;-82
2023/07/30 08:48:15;;;;;;;6.60;2.10;;;;;;;;;;5030123;28;20412;-81
2023/07/30 08:50:41;;;;;;;3.95;1.90;;;;;;;;;;4993521;28;20050;-82
2023/07/30 08:53:08;;;;;;;3.70;1.73;;;;;;;;;;5012104;28;20053;-81
2023/07/30 08:55:35;;;;;;;6.03;1.42;;;;;;;;;;5010506;28;20057;-81
2023/07/30 08:58:05;;;;;;;5.57;1.80;;;;;;;;;;4990490;28;20500;-81
2023/07/30 09:00:35;;;;;;;5.40;2.13;;;;;;;;;;5007390;28;20526;-83
2023/07/30 09:03:03;;;;;;;7.35;2.35;;;;;;;;;;4991630;28;20479;-80
2023/07/30 09:05:29;;;;;;;5.25;2.17;;;;;;;;;;5009718;28;20060;-81
2023/07/30 09:07:56;;;;;;;5.22;2.10;;;;;;;;;;5000942;28;20587;-81
2023/07/30 09:10:22;;;;;;;5.38;2.25;;;;;;;;;;4978983;28;20042;-82
2023/07/30 09:12:56;;;;;;;6.60;2.30;;;;;;;;;;5003379;28;20081;-81
2023/07/30 09:15:37;;;;;;;5.97;2.70;;;;;;;;;;5021852;28;20084;-82
2023/07/30 09:18:03;;;;;;;4.68;2.45;;;;;;;;;;5007168;28;20095;-81
2023/07/30 09:20:36;;;;;;;8.20;2.55;;;;;;;;;;4990775;28;20038;-80
2023/07/30 09:23:02;;;;;;;8.75;3.35;;;;;;;;;;4991044;28;20421;-81
2023/07/30 09:25:28;;;;;;;5.95;2.20;;;;;;;;;;4993392;28;20067;-82
2023/07/30 09:27:56;;;;;;;4.82;2.15;;;;;;;;;;4992329;28;20042;-82
2023/07/30 09:30:23;;;;;;;4.03;2.00;;;;;;;;;;4981895;28;20044;-83
2023/07/30 09:32:52;;;;;;;3.25;1.90;;;;;;;;;;5003524;28;20042;-83
2023/07/30 09:35:19;;;;;;;3.45;2.00;;;;;;;;;;4982755;28;20046;-83
2023/07/30 09:37:45;;;;;;;5.35;2.08;;;;;;;;;;5010005;28;20500;-82
2023/07/30 09:40:13;;;;;;;6.15;2.13;;;;;;;;;;5014209;28;20427;-83
2023/07/30 09:42:39;;;;;;;7.07;2.40;;;;;;;;;;4981666;28;20052;-84
2023/07/30 09:45:07;;;;;;;4.88;2.83;;;;;;;;;;5000520;28;20054;-83
2023/07/30 09:47:35;;;;;;;3.80;1.50;;;;;;;;;;5006827;28;20042;-86
2023/07/30 09:50:02;;;;;;;7.50;1.80;;;;;;;;;;4991696;28;20281;-84
2023/07/30 09:52:28;;;;;;;3.97;1.27;;;;;;;;;;4989844;28;20100;-82
2023/07/30 09:54:55;;;;;;;3.58;1.58;;;;;;;;;;5010283;28;20456;-82
2023/07/30 09:57:21;;;;;;;1.88;1.10;;;;;;;;;;5005189;28;20041;-82
2023/07/30 09:59:47;;;;;;;5.32;1.42;;;;;;;;;;5005678;28;20034;-82
2023/07/30 10:02:14;;;;;;;4.13;1.58;;;;;;;;;;5008212;28;20042;-86
2023/07/30 10:04:43;;;;;;;3.70;0.82;;;;;;;;;;5011004;28;20038;-85
2023/07/30 10:07:16;;;;;;;4.25;1.30;;;;;;;;;;5011058;28;20121;-85
2023/07/30 10:09:44;;;;;;;1.25;0.70;;;;;;;;;;5006332;28;20038;-84
2023/07/30 10:12:18;;;;;;;2.30;0.93;;;;;;;;;;5020155;28;20048;-83
2023/07/30 10:14:44;;;;;;;2.28;0.90;;;;;;;;;;5000168;28;20125;-85
2023/07/30 10:17:11;;;;;;;4.43;1.17;;;;;;;;;;5005680;28;20067;-85
2023/07/30 10:19:37;;;;;;;3.10;0.75;;;;;;;;;;4994877;28;20045;-84
2023/07/30 10:22:12;;;;;;;3.80;0.90;;;;;;;;;;4995775;28;20065;-83
2023/07/30 10:24:39;;;;;;;2.33;1.00;;;;;;;;;;4987843;28;20065;-82
2023/07/30 10:27:12;;;;;;;3.38;1.20;;;;;;;;;;4950837;28;20095;-83
2023/07/30 10:29:41;;;;;;;1.77;0.95;;;;;;;;;;4983962;28;20042;-82
2023/07/30 10:32:07;;;;;;;4.88;1.10;;;;;;;;;;5023328;28;20422;-83
2023/07/30 10:34:47;;;;;;;6.63;1.25;;;;;;;;;;5006524;28;20549;-84
2023/07/30 10:37:19;;;;;;;2.90;1.33;;;;;;;;;;4986232;28;20041;-82
2023/07/30 10:39:48;;;;;;;3.38;1.00;;;;;;;;;;5018235;28;20196;-84
2023/07/30 10:42:14;;;;;;;1.27;0.90;;;;;;;;;;5002969;28;20048;-82
2023/07/30 10:44:44;;;;;;;5.60;1.40;;;;;;;;;;4998945;28;20034;-84
2023/07/30 10:47:10;;;;;;;3.55;1.10;;;;;;;;;;5005007;28;20044;-81
2023/07/30 10:49:48;;;;;;;4.28;1.45;;;;;;;;;;5003156;28;20620;-84
2023/07/30 10:52:16;;;;;;;2.88;1.23;;;;;;;;;;5006816;28;20133;-84
2023/07/30 10:54:42;;;;;;;3.67;1.35;;;;;;;;;;5001867;28;20491;-84
2023/07/30 10:57:08;;;;;;;6.43;1.63;;;;;;;;;;5020705;28;20044;-82
2023/07/30 10:59:37;;;;;;;2.63;1.55;;;;;;;;;;4994716;28;20034;-84
2023/07/30 11:02:04;;;;;;;3.67;1.50;;;;;;;;;;5025671;28;20336;-83
2023/07/30 11:04:34;;;;;;;7.47;2.00;;;;;;;;;;5009701;28;20042;-83
2023/07/30 11:07:00;;;;;;;7.72;2.47;;;;;;;;;;5009091;28;20034;-83
2023/07/30 11:09:27;;;;;;;4.43;1.63;;;;;;;;;;5000290;28;20052;-83
2023/07/30 11:11:54;;;;;;;4.78;1.98;;;;;;;;;;4979063;28;20395;-82
2023/07/30 11:14:21;;;;;;;3.45;1.65;;;;;;;;;;5007928;28;20347;-83
2023/07/30 11:16:50;;;;;;;4.70;1.25;;;;;;;;;;4997075;28;20048;-82
2023/07/30 11:19:17;;;;;;;2.92;1.27;;;;;;;;;;5005828;28;20045;-81
2023/07/30 11:21:46;;;;;;;4.68;1.52;;;;;;;;;;4993863;28;20046;-82
2023/07/30 11:24:12;;;;;;;3.25;1.20;;;;;;;;;;5000718;28;20141;-83
2023/07/30 11:26:38;;;;;;;4.80;1.88;;;;;;;;;;4989408;28;20204;-82
2023/07/30 11:29:17;;;;;;;3.78;1.40;;;;;;;;;;4998601;28;20546;-81
2023/07/30 11:31:44;;;;;;;4.72;1.40;;;;;;;;;;5012277;28;20490;-81
2023/07/30 11:34:10;;;;;;;3.00;1.20;;;;;;;;;;4982927;28;20049;-80
2023/07/30 11:36:37;;;;;;;5.85;2.20;;;;;;;;;;5006440;28;20377;-83
2023/07/30 11:39:04;;;;;;;7.93;1.92;;;;;;;;;;4962368;28;20054;-80
2023/07/30 11:41:30;;;;;;;4.50;1.38;;;;;;;;;;4981028;28;20045;-81
2023/07/30 11:43:56;;;;;;;4.32;1.30;;;;;;;;;;4977578;28;20113;-81
2023/07/30 11:46:22;;;;;;;2.65;1.10;;;;;;;;;;4959946;28;20295;-82
2023/07/30 11:48:49;;;;;;;4.78;1.05;;;;;;;;;;4982825;28;20108;-81
2023/07/30 11:51:19;;;;;;;6.40;1.40;;;;;;;;;;5008611;28;20100;-81
2023/07/30 11:53:47;;;;;;;6.85;1.45;;;;;;;;;;4999829;28;20043;-85
2023/07/30 11:56:19;;;;;;;4.40;1.10;;;;;;;;;;5008002;28;20141;-81
2023/07/30 11:58:47;;;;;;;3.40;1.55;;;;;;;;;;5008433;28;20415;-82
2023/07/30 12:01:13;;;;;;;3.65;1.00;;;;;;;;;;5008242;28;20434;-82
2023/07/30 12:03:41;;;;;;;4.28;1.08;;;;;;;;;;5003839;28;20483;-82
2023/07/30 12:06:07;;;;;;;3.55;0.82;;;;;;;;;;4990115;28;20053;-81
2023/07/30 12:08:34;;;;;;;2.97;1.02;;;;;;;;;;5008561;28;20051;-82
2023/07/30 12:11:03;;;;;;;2.88;0.73;;;;;;;;;;5004807;28;20042;-82
2023/07/30 12:13:29;;;;;;;4.13;1.02;;;;;;;;;;5008678;28;20095;-85
2023/07/30 12:15:56;;;;;;;1.92;0.70;;;;;;;;;;4975651;28;20074;-82
2023/07/30 12:18:23;;;;;;;1.85;0.85;;;;;;;;;;4992050;28;20419;-84
2023/07/30 12:20:50;;;;;;;3.28;1.00;;;;;;;;;;5006144;28;20045;-83
2023/07/30 12:23:16;;;;;;;4.82;1.02;;;;;;;;;;5007887;28;20049;-82
2023/07/30 12:25:42;;;;;;;5.70;1.33;;;;;;;;;;4988536;28;20057;-81
2023/07/30 12:28:08;;;;;;;2.90;0.90;;;;;;;;;;5009339;28;20038;-82
2023/07/30 12:30:36;;;;;;;5.07;0.90;;;;;;;;;;4992586;28;20061;-80
2023/07/30 12:33:02;;;;;;;2.95;0.90;;;;;;;;;;4988414;28;20061;-80
2023/07/30 12:35:28;;;;;;;3.85;1.20;;;;;;;;;;5008186;28;20042;-82
2023/07/30 12:37:54;;;;;;;3.53;0.88;;;;;;;;;;4992143;28;20037;-82
2023/07/30 12:40:20;;;;;;;4.82;1.15;;;;;;;;;;4985441;28;20047;-82
2023/07/30 12:42:46;;;;;;;6.10;1.02;;;;;;;;;;4971899;28;20072;-84
2023/07/30 12:45:12;;;;;;;6.03;0.93;;;;;;;;;;4995293;28;20116;-83
2023/07/30 12:47:39;;;;;;;5.80;0.90;;;;;;;;;;4967105;28;20038;-80
2023/07/30 12:50:05;;;;;;;2.50;0.90;;;;;;;;;;4992255;28;20136;-82
2023/07/30 12:52:32;;;;;;;5.57;0.95;;;;;;;;;;4999719;28;20050;-81
2023/07/30 12:54:58;;;;;;;4.22;0.98;;;;;;;;;;4970389;28;20046;-81
2023/07/30 12:57:24;;;;;;;6.45;1.10;;;;;;;;;;4988239;28;20042;-81
2023/07/30 12:59:50;;;;;;;2.45;0.70;;;;;;;;;;4989822;28;20046;-88
2023/07/30 13:02:16;;;;;;;3.55;0.98;;;;;;;;;;5002149;28;20471;-84
2023/07/30 13:04:42;;;;;;;1.63;0.70;;;;;;;;;;4990434;28;20042;-87
2023/07/30 13:07:08;;;;;;;1.27;0.60;;;;;;;;;;4993700;28;20451;-86
2023/07/30 13:09:34;;;;;;;3.55;0.90;;;;;;;;;;5000766;28;20046;-85
2023/07/30 13:12:01;;;;;;;3.90;0.80;;;;;;;;;;4973437;28;20078;-85
2023/07/30 13:14:27;;;;;;;3.63;0.80;;;;;;;;;;4973030;28;20054;-85
2023/07/30 13:16:53;;;;;;;1.10;0.70;;;;;;;;;;4960085;28;20050;-88
2023/07/30 13:19:19;;;;;;;5.05;1.05;;;;;;;;;;4993033;28;20058;-85
2023/07/30 13:21:45;;;;;;;4.63;1.00;;;;;;;;;;4986028;28;21266;-87
2023/07/30 13:24:11;;;;;;;5.25;1.30;;;;;;;;;;4973466;28;20039;-85
2023/07/30 13:26:38;;;;;;;4.13;1.08;;;;;;;;;;4972542;28;20185;-86
2023/07/30 13:29:04;;;;;;;5.55;0.95;;;;;;;;;;4991653;28;20492;-85
2023/07/30 13:31:30;;;;;;;2.53;1.05;;;;;;;;;;4992114;28;20420;-89
2023/07/30 13:33:56;;;;;;;2.13;0.90;;;;;;;;;;4992264;28;20042;-89
2023/07/30 13:36:23;;;;;;;3.70;0.77;;;;;;;;;;4991798;28;20049;-86
2023/07/30 13:38:49;;;;;;;3.17;1.23;;;;;;;;;;4995920;28;20057;-92
2023/07/30 13:41:15;;;;;;;1.80;0.82;;;;;;;;;;5011956;28;20056;-90
2023/07/30 13:43:41;;;;;;;4.40;1.35;;;;;;;;;;5011510;28;20049;-88
2023/07/30 13:46:07;;;;;;;4.00;1.33;;;;;;;;;;5012758;28;20033;-90
2023/07/30 13:48:33;;;;;;;3.50;1.00;;;;;;;;;;4994313;28;20048;-86
2023/07/30 13:50:59;;;;;;;3.28;0.88;;;;;;;;;;5011666;28;20038;-91
2023/07/30 13:53:25;;;;;;;1.65;0.60;;;;;;;;;;4994537;28;20125;-87
2023/07/30 13:55:51;;;;;;;1.45;0.70;;;;;;;;;;5011309;28;20161;-84
2023/07/30 13:58:17;;;;;;;1.48;0.50;;;;;;;;;;5010790;28;20076;-85
2023/07/30 14:00:43;;;;;;;2.13;0.50;;;;;;;;;;5011578;28;20038;-86
2023/07/30 14:03:11;;;;;;;2.33;0.57;;;;;;;;;;5004362;28;20041;-86
2023/07/30 14:05:37;;;;;;;1.85;0.50;;;;;;;;;;4988049;28;20089;-82
2023/07/30 14:08:03;;;;;;;6.72;1.23;;;;;;;;;;4994241;28;20415;-85
2023/07/30 14:10:29;;;;;;;2.20;0.60;;;;;;;;;;5007901;28;20037;-85
2023/07/30 14:12:55;;;;;;;5.57;0.60;;;;;;;;;;5000102;28;20058;-88
2023/07/30 14:15:21;;;;;;;2.40;0.50;;;;;;;;;;4989474;28;20046;-84
2023/07/30 14:17:47;;;;;;;7.18;1.13;;;;;;;;;;5005537;28;20187;-86
2023/07/30 14:20:13;;;;;;;3.28;0.75;;;;;;;;;;5005905;28;20042;-85
2023/07/30 14:22:39;;;;;;;2.33;0.80;;;;;;;;;;5029124;28;20038;-85
2023/07/30 14:25:05;;;;;;;1.73;0.50;;;;;;;;;;4986222;28;20404;-82
2023/07/30 14:27:31;;;;;;;3.05;0.50;;;;;;;;;;4990516;28;20501;-82
2023/07/30 14:29:57;;;;;;;1.35;0.60;;;;;;;;;;5005160;28;20038;-83
2023/07/30 14:32:24;;;;;;;1.17;0.50;;;;;;;;;;5008182;28;20108;-83
2023/07/30 14:34:50;;;;;;;2.38;0.60;;;;;;;;;;5009652;28;20056;-85
2023/07/30 14:37:16;;;;;;;3.53;0.63;;;;;;;;;;5010307;28;20121;-81
2023/07/30 14:39:43;;;;;;;2.78;0.80;;;;;;;;;;5010004;28;20076;-82